Rhourd El Adra — 7TBS — position and weather

sailwx.info

Track history (hours):
 
Tides and Currents Weather Stations Pressure Air Temp Water Temp Dewpoint Dewpoint Depression Visibility Wind Speed Wind Dir Waves Ship Positions

Rhourd El Adra

Last reported at 2015-Jul-01 12:33 UTC. Time now 2015-Jul-01 12:49 UTC.
Position N 39°16' E 000°42'.

Length 156 m; draft 7.1 m.

Type: Ship (hazmat cat C). MMSI: 605026210.

Date/timePositionNaut miles runAvg speedWind from/ knotsBaromVisibWave heightAir tempDewpointWater temp
2015-Jul-01 12:33N 39°16' E 000°42'1615.4
2015-Jul-01 11:32N 39°32' E 000°47'1515.6
2015-Jul-01 10:33N 39°47' E 000°51'1615.7
2015-Jul-01 09:33N 40°02' E 000°55'1615.5
2015-Jul-01 08:33N 40°17' E 000°59'1615.8
2015-Jul-01 07:33N 40°33' E 001°04'1615.6
2015-Jul-01 06:33N 40°48' E 001°07'1515.3
2015-Jul-01 05:34N 41°03' E 001°12'3 0.3
2015-Jun-30 19:33N 41°06' E 001°13'0 0.0
2015-Jun-30 18:21N 41°06' E 001°13'0 0.0
2015-Jun-29 15:21N 41°06' E 001°13'2 2.3
2015-Jun-29 14:33N 41°04' E 001°12'9 9.1
2015-Jun-29 13:33N 40°55' E 001°10'1413.5
2015-Jun-29 12:33N 40°42' E 001°06'1514.7
2015-Jun-29 11:33N 40°28' E 001°04'1514.9
2015-Jun-29 10:33N 40°13' E 001°02'1414.4
2015-Jun-29 09:33N 39°60' E 000°54'4515.0
2015-Jun-29 06:33N 39°16' E 000°42'1615.4
2015-Jun-29 05:32N 39°00' E 000°38'1515.2
2015-Jun-29 04:33N 38°46' E 000°34'1514.9
2015-Jun-29 03:33N 38°31' E 000°30'1515.1
2015-Jun-29 02:34N 38°16' E 000°26'1514.9
2015-Jun-29 01:33N 38°02' E 000°22'1514.5
2015-Jun-29 00:33N 37°48' E 000°18'1515.0
2015-Jun-28 23:34N 37°33' E 000°14'1514.7
2015-Jun-28 22:34N 37°19' E 000°09'1514.8
2015-Jun-28 21:33N 37°04' E 000°06'1515.0
2015-Jun-28 20:34N 36°49' E 000°02'1514.6
2015-Jun-28 19:33N 36°35' W 000°03'1514.8
2015-Jun-28 18:34N 36°21' W 000°07'1615.5
2015-Jun-28 17:33N 36°06' W 000°11'1414.2
2015-Jun-28 16:33N 35°52' W 000°15'2 0.1
2015-Jun-27 11:19N 35°51' W 000°18'4 5.0
2015-Jun-27 10:26N 35°55' W 000°15'2 2.6
2015-Jun-27 09:33N 35°56' W 000°12'1312.9
2015-Jun-27 08:33N 36°06' W 000°03'1514.8
2015-Jun-27 07:33N 36°17' E 000°10'1515.2
2015-Jun-27 06:33N 36°26' E 000°25'1515.3
2015-Jun-27 05:33N 36°34' E 000°41'1515.2
2015-Jun-27 04:33N 36°44' E 000°56'1615.7
2015-Jun-27 03:33N 36°55' E 001°10'1616.3
2015-Jun-27 02:33N 37°07' E 001°24'1616.4
2015-Jun-27 01:33N 37°19' E 001°38'1615.8
2015-Jun-27 00:33N 37°30' E 001°52'1615.9
2015-Jun-26 23:34N 37°41' E 002°06'1615.9
2015-Jun-26 22:33N 37°52' E 002°20'1615.7
2015-Jun-26 21:33N 38°04' E 002°34'1615.8
2015-Jun-26 20:33N 38°15' E 002°48'1615.7
2015-Jun-26 19:33N 38°26' E 003°02'1615.8
2015-Jun-26 18:33N 38°38' E 003°16'1515.2
2015-Jun-26 17:33N 38°48' E 003°30'1515.1
2015-Jun-26 16:33N 38°59' E 003°43'1515.4
2015-Jun-26 15:33N 39°10' E 003°57'1615.8
2015-Jun-26 14:33N 39°22' E 004°11'1515.4
2015-Jun-26 13:33N 39°33' E 004°25'1716.1
2015-Jun-26 12:31N 39°45' E 004°40'1515.3
2015-Jun-26 11:31N 39°55' E 004°54'4515.2
2015-Jun-26 08:33N 40°28' E 005°36'2215.2
2015-Jun-26 07:07N 40°43' E 005°56'915.3
2015-Jun-26 06:32N 40°50' E 006°04'1515.5
2015-Jun-26 05:33N 41°01' E 006°18'1515.6
2015-Jun-26 04:33N 41°12' E 006°32'1615.8
2015-Jun-26 03:33N 41°23' E 006°47'1616.0
2015-Jun-26 02:32N 41°35' E 007°02'1615.8
2015-Jun-26 01:33N 41°46' E 007°16'1515.6
2015-Jun-26 00:33N 41°57' E 007°30'2015.9
2015-Jun-25 23:20N 42°11' E 007°49'1316.3
2015-Jun-25 22:33N 42°20' E 008°01'1616.2
2015-Jun-25 21:33N 42°32' E 008°17'1515.4
2015-Jun-25 20:33N 42°43' E 008°31'1615.1
2015-Jun-25 19:29N 42°55' E 008°46'1414.9
2015-Jun-25 18:33N 43°04' E 009°01'1515.4
2015-Jun-25 17:33N 43°11' E 009°19'1616.0
2015-Jun-25 16:33N 43°16' E 009°40'1515.4
2015-Jun-25 15:33N 43°20' E 010°00'1313.4
2015-Jun-25 14:34N 43°30' E 010°12'7 6.8
2015-Jun-25 13:34N 43°35' E 010°19'0 0.3
2015-Jun-25 12:31N 43°35' E 010°19'0 0.0
2015-Jun-25 11:31N 43°35' E 010°19'0 0.0
2015-Jun-25 10:31N 43°35' E 010°19'0 0.0
2015-Jun-25 09:31N 43°35' E 010°19'0 0.0
2015-Jun-25 08:31N 43°35' E 010°19'0 0.0
2015-Jun-25 07:28N 43°35' E 010°19'0 0.0
2015-Jun-25 06:31N 43°35' E 010°19'0 0.0
2015-Jun-25 05:31N 43°35' E 010°19'0 0.0
2015-Jun-25 04:31N 43°35' E 010°19'0 0.0
2015-Jun-25 03:31N 43°35' E 010°19'0 0.0
2015-Jun-25 02:31N 43°35' E 010°19'0 0.0
2015-Jun-25 01:31N 43°35' E 010°19'0 0.0
2015-Jun-25 00:31N 43°35' E 010°19'0 0.0
2015-Jun-24 23:31N 43°35' E 010°19'0 0.0
2015-Jun-24 22:31N 43°35' E 010°19'0 0.0
2015-Jun-24 21:31N 43°35' E 010°19'0 0.0
2015-Jun-24 20:31N 43°35' E 010°19'0 0.0
2015-Jun-24 19:28N 43°35' E 010°19'0 0.0
2015-Jun-24 18:31N 43°35' E 010°19'0 0.0
2015-Jun-24 17:31N 43°35' E 010°19'0 0.0
2015-Jun-24 16:31N 43°35' E 010°19'0 0.0
2015-Jun-24 15:31N 43°35' E 010°19'0 0.0
2015-Jun-24 14:31N 43°35' E 010°19'0 0.0
2015-Jun-24 13:31N 43°35' E 010°19'0 0.0
2015-Jun-24 12:31N 43°35' E 010°19'0 0.0
2015-Jun-24 11:28N 43°35' E 010°19'1 0.9
2015-Jun-24 10:33N 43°34' E 010°19'5 5.4
2015-Jun-24 09:33N 43°30' E 010°14'1211.6
2015-Jun-24 08:34N 43°21' E 010°04'1313.3
2015-Jun-24 07:34N 43°18' E 009°46'1414.4
2015-Jun-24 06:34N 43°17' E 009°27'1514.6
2015-Jun-24 05:34N 43°13' E 009°08'9915.3
2015-Jun-23 23:06N 42°00' E 007°36'815.0
2015-Jun-23 22:33N 41°56' E 007°27'5615.1
2015-Jun-23 18:50N 41°15' E 006°34'34714.9
2015-Jun-22 19:33N 37°09' E 001°19'1514.9
2015-Jun-22 18:33N 36°59' E 001°05'1615.4
2015-Jun-22 17:32N 36°48' E 000°51'1515.5
2015-Jun-22 16:33N 36°37' E 000°37'1615.7
2015-Jun-22 15:33N 36°26' E 000°24'1515.5
2015-Jun-22 14:33N 36°15' E 000°11'2115.5
2015-Jun-22 13:11N 35°59' W 000°07'914.2
2015-Jun-22 12:32N 35°52' W 000°15'  
Track history (hours):
 
Tides and Currents Weather Stations Pressure Air Temp Water Temp Dewpoint Dewpoint Depression Visibility Wind Speed Wind Dir Waves Ship Positions

Rhourd El Adra

Last reported at 2015-Jul-01 12:33 UTC. Time now 2015-Jul-01 12:49 UTC.
Position N 39°16' E 000°42'.

Length 156 m; draft 7.1 m.

Type: Ship (hazmat cat C). MMSI: 605026210.

Date/timePositionNaut miles runAvg speedWind from/ knotsBaromVisibWave heightAir tempDewpointWater temp
2015-Jul-01 12:33N 39°16' E 000°42'1615.4
2015-Jul-01 11:32N 39°32' E 000°47'1515.6
2015-Jul-01 10:33N 39°47' E 000°51'1615.7
2015-Jul-01 09:33N 40°02' E 000°55'1615.5
2015-Jul-01 08:33N 40°17' E 000°59'1615.8
2015-Jul-01 07:33N 40°33' E 001°04'1615.6
2015-Jul-01 06:33N 40°48' E 001°07'1515.3
2015-Jul-01 05:34N 41°03' E 001°12'3 0.3
2015-Jun-30 19:33N 41°06' E 001°13'0 0.0
2015-Jun-30 18:21N 41°06' E 001°13'0 0.0
2015-Jun-29 15:21N 41°06' E 001°13'2 2.3
2015-Jun-29 14:33N 41°04' E 001°12'9 9.1
2015-Jun-29 13:33N 40°55' E 001°10'1413.5
2015-Jun-29 12:33N 40°42' E 001°06'1514.7
2015-Jun-29 11:33N 40°28' E 001°04'1514.9
2015-Jun-29 10:33N 40°13' E 001°02'1414.4
2015-Jun-29 09:33N 39°60' E 000°54'4515.0
2015-Jun-29 06:33N 39°16' E 000°42'1615.4
2015-Jun-29 05:32N 39°00' E 000°38'1515.2
2015-Jun-29 04:33N 38°46' E 000°34'1514.9
2015-Jun-29 03:33N 38°31' E 000°30'1515.1
2015-Jun-29 02:34N 38°16' E 000°26'1514.9
2015-Jun-29 01:33N 38°02' E 000°22'1514.5
2015-Jun-29 00:33N 37°48' E 000°18'1515.0
2015-Jun-28 23:34N 37°33' E 000°14'1514.7
2015-Jun-28 22:34N 37°19' E 000°09'1514.8
2015-Jun-28 21:33N 37°04' E 000°06'1515.0
2015-Jun-28 20:34N 36°49' E 000°02'1514.6
2015-Jun-28 19:33N 36°35' W 000°03'1514.8
2015-Jun-28 18:34N 36°21' W 000°07'1615.5
2015-Jun-28 17:33N 36°06' W 000°11'1414.2
2015-Jun-28 16:33N 35°52' W 000°15'2 0.1
2015-Jun-27 11:19N 35°51' W 000°18'4 5.0
2015-Jun-27 10:26N 35°55' W 000°15'2 2.6
2015-Jun-27 09:33N 35°56' W 000°12'1312.9
2015-Jun-27 08:33N 36°06' W 000°03'1514.8
2015-Jun-27 07:33N 36°17' E 000°10'1515.2
2015-Jun-27 06:33N 36°26' E 000°25'1515.3
2015-Jun-27 05:33N 36°34' E 000°41'1515.2
2015-Jun-27 04:33N 36°44' E 000°56'1615.7
2015-Jun-27 03:33N 36°55' E 001°10'1616.3
2015-Jun-27 02:33N 37°07' E 001°24'1616.4
2015-Jun-27 01:33N 37°19' E 001°38'1615.8
2015-Jun-27 00:33N 37°30' E 001°52'1615.9
2015-Jun-26 23:34N 37°41' E 002°06'1615.9
2015-Jun-26 22:33N 37°52' E 002°20'1615.7
2015-Jun-26 21:33N 38°04' E 002°34'1615.8
2015-Jun-26 20:33N 38°15' E 002°48'1615.7
2015-Jun-26 19:33N 38°26' E 003°02'1615.8
2015-Jun-26 18:33N 38°38' E 003°16'1515.2
2015-Jun-26 17:33N 38°48' E 003°30'1515.1
2015-Jun-26 16:33N 38°59' E 003°43'1515.4
2015-Jun-26 15:33N 39°10' E 003°57'1615.8
2015-Jun-26 14:33N 39°22' E 004°11'1515.4
2015-Jun-26 13:33N 39°33' E 004°25'1716.1
2015-Jun-26 12:31N 39°45' E 004°40'1515.3
2015-Jun-26 11:31N 39°55' E 004°54'4515.2
2015-Jun-26 08:33N 40°28' E 005°36'2215.2
2015-Jun-26 07:07N 40°43' E 005°56'915.3
2015-Jun-26 06:32N 40°50' E 006°04'1515.5
2015-Jun-26 05:33N 41°01' E 006°18'1515.6
2015-Jun-26 04:33N 41°12' E 006°32'1615.8
2015-Jun-26 03:33N 41°23' E 006°47'1616.0
2015-Jun-26 02:32N 41°35' E 007°02'1615.8
2015-Jun-26 01:33N 41°46' E 007°16'1515.6
2015-Jun-26 00:33N 41°57' E 007°30'2015.9
2015-Jun-25 23:20N 42°11' E 007°49'1316.3
2015-Jun-25 22:33N 42°20' E 008°01'1616.2
2015-Jun-25 21:33N 42°32' E 008°17'1515.4
2015-Jun-25 20:33N 42°43' E 008°31'1615.1
2015-Jun-25 19:29N 42°55' E 008°46'1414.9
2015-Jun-25 18:33N 43°04' E 009°01'1515.4
2015-Jun-25 17:33N 43°11' E 009°19'1616.0
2015-Jun-25 16:33N 43°16' E 009°40'1515.4
2015-Jun-25 15:33N 43°20' E 010°00'1313.4
2015-Jun-25 14:34N 43°30' E 010°12'7 6.8
2015-Jun-25 13:34N 43°35' E 010°19'0 0.3
2015-Jun-25 12:31N 43°35' E 010°19'0 0.0
2015-Jun-25 11:31N 43°35' E 010°19'0 0.0
2015-Jun-25 10:31N 43°35' E 010°19'0 0.0
2015-Jun-25 09:31N 43°35' E 010°19'0 0.0
2015-Jun-25 08:31N 43°35' E 010°19'0 0.0
2015-Jun-25 07:28N 43°35' E 010°19'0 0.0
2015-Jun-25 06:31N 43°35' E 010°19'0 0.0
2015-Jun-25 05:31N 43°35' E 010°19'0 0.0
2015-Jun-25 04:31N 43°35' E 010°19'0 0.0
2015-Jun-25 03:31N 43°35' E 010°19'0 0.0
2015-Jun-25 02:31N 43°35' E 010°19'0 0.0
2015-Jun-25 01:31N 43°35' E 010°19'0 0.0
2015-Jun-25 00:31N 43°35' E 010°19'0 0.0
2015-Jun-24 23:31N 43°35' E 010°19'0 0.0
2015-Jun-24 22:31N 43°35' E 010°19'0 0.0
2015-Jun-24 21:31N 43°35' E 010°19'0 0.0
2015-Jun-24 20:31N 43°35' E 010°19'0 0.0
2015-Jun-24 19:28N 43°35' E 010°19'0 0.0
2015-Jun-24 18:31N 43°35' E 010°19'0 0.0
2015-Jun-24 17:31N 43°35' E 010°19'0 0.0
2015-Jun-24 16:31N 43°35' E 010°19'0 0.0
2015-Jun-24 15:31N 43°35' E 010°19'0 0.0
2015-Jun-24 14:31N 43°35' E 010°19'0 0.0
2015-Jun-24 13:31N 43°35' E 010°19'0 0.0
2015-Jun-24 12:31N 43°35' E 010°19'0 0.0
2015-Jun-24 11:28N 43°35' E 010°19'1 0.9
2015-Jun-24 10:33N 43°34' E 010°19'5 5.4
2015-Jun-24 09:33N 43°30' E 010°14'1211.6
2015-Jun-24 08:34N 43°21' E 010°04'1313.3
2015-Jun-24 07:34N 43°18' E 009°46'1414.4
2015-Jun-24 06:34N 43°17' E 009°27'1514.6
2015-Jun-24 05:34N 43°13' E 009°08'9915.3
2015-Jun-23 23:06N 42°00' E 007°36'815.0
2015-Jun-23 22:33N 41°56' E 007°27'5615.1
2015-Jun-23 18:50N 41°15' E 006°34'34714.9
2015-Jun-22 19:33N 37°09' E 001°19'1514.9
2015-Jun-22 18:33N 36°59' E 001°05'1615.4
2015-Jun-22 17:32N 36°48' E 000°51'1515.5
2015-Jun-22 16:33N 36°37' E 000°37'1615.7
2015-Jun-22 15:33N 36°26' E 000°24'1515.5
2015-Jun-22 14:33N 36°15' E 000°11'2115.5
2015-Jun-22 13:11N 35°59' W 000°07'914.2
2015-Jun-22 12:32N 35°52' W 000°15'  

Dump ship's entire track history